sensor_id;sensor_type;location;lat;lon;timestamp;P1;durP1;ratioP1;P2;durP2;ratioP2
68680;SDS011;55836;49.858;6.756;2024-03-29T00:01:59;1.93;;;1.17;;
68680;SDS011;55836;49.858;6.756;2024-03-29T00:04:25;0.83;;;0.83;;
68680;SDS011;55836;49.858;6.756;2024-03-29T00:06:51;1.47;;;0.90;;
68680;SDS011;55836;49.858;6.756;2024-03-29T00:09:17;1.30;;;1.17;;
68680;SDS011;55836;49.858;6.756;2024-03-29T00:11:43;1.67;;;1.30;;
68680;SDS011;55836;49.858;6.756;2024-03-29T00:14:09;1.00;;;0.87;;
68680;SDS011;55836;49.858;6.756;2024-03-29T00:16:35;1.50;;;1.07;;
68680;SDS011;55836;49.858;6.756;2024-03-29T00:19:01;2.23;;;1.00;;
68680;SDS011;55836;49.858;6.756;2024-03-29T00:21:27;1.40;;;1.00;;
68680;SDS011;55836;49.858;6.756;2024-03-29T00:23:53;1.00;;;0.90;;
68680;SDS011;55836;49.858;6.756;2024-03-29T00:26:19;1.90;;;1.20;;
68680;SDS011;55836;49.858;6.756;2024-03-29T00:28:45;1.23;;;1.10;;
68680;SDS011;55836;49.858;6.756;2024-03-29T00:31:12;1.63;;;0.77;;
68680;SDS011;55836;49.858;6.756;2024-03-29T00:33:38;3.03;;;1.20;;
68680;SDS011;55836;49.858;6.756;2024-03-29T00:36:04;3.80;;;0.90;;
68680;SDS011;55836;49.858;6.756;2024-03-29T00:38:30;0.97;;;0.90;;
68680;SDS011;55836;49.858;6.756;2024-03-29T00:40:56;1.67;;;0.90;;
68680;SDS011;55836;49.858;6.756;2024-03-29T00:43:22;1.33;;;0.87;;
68680;SDS011;55836;49.858;6.756;2024-03-29T00:45:48;1.33;;;1.10;;
68680;SDS011;55836;49.858;6.756;2024-03-29T00:48:14;0.80;;;0.80;;
68680;SDS011;55836;49.858;6.756;2024-03-29T00:50:42;2.30;;;1.00;;
68680;SDS011;55836;49.858;6.756;2024-03-29T00:53:08;1.20;;;1.00;;
68680;SDS011;55836;49.858;6.756;2024-03-29T00:55:34;2.97;;;1.23;;
68680;SDS011;55836;49.858;6.756;2024-03-29T00:58:00;1.97;;;1.57;;
68680;SDS011;55836;49.858;6.756;2024-03-29T01:00:26;1.73;;;1.17;;
68680;SDS011;55836;49.858;6.756;2024-03-29T01:02:52;1.23;;;0.87;;
68680;SDS011;55836;49.858;6.756;2024-03-29T01:05:18;0.70;;;0.70;;
68680;SDS011;55836;49.858;6.756;2024-03-29T01:07:44;1.17;;;0.83;;
68680;SDS011;55836;49.858;6.756;2024-03-29T01:10:10;1.27;;;1.17;;
68680;SDS011;55836;49.858;6.756;2024-03-29T01:12:36;2.03;;;0.80;;
68680;SDS011;55836;49.858;6.756;2024-03-29T01:15:04;1.07;;;0.87;;
68680;SDS011;55836;49.858;6.756;2024-03-29T01:17:31;1.43;;;0.90;;
68680;SDS011;55836;49.858;6.756;2024-03-29T01:19:57;1.47;;;1.00;;
68680;SDS011;55836;49.858;6.756;2024-03-29T01:22:23;1.73;;;0.90;;
68680;SDS011;55836;49.858;6.756;2024-03-29T01:24:49;1.23;;;1.00;;
68680;SDS011;55836;49.858;6.756;2024-03-29T01:27:15;1.00;;;0.90;;
68680;SDS011;55836;49.858;6.756;2024-03-29T01:29:41;2.57;;;1.27;;
68680;SDS011;55836;49.858;6.756;2024-03-29T01:32:07;2.93;;;1.10;;
68680;SDS011;55836;49.858;6.756;2024-03-29T01:34:33;1.43;;;0.90;;
68680;SDS011;55836;49.858;6.756;2024-03-29T01:36:59;1.10;;;1.10;;
68680;SDS011;55836;49.858;6.756;2024-03-29T01:39:25;1.83;;;1.10;;
68680;SDS011;55836;49.858;6.756;2024-03-29T01:41:53;1.47;;;1.00;;
68680;SDS011;55836;49.858;6.756;2024-03-29T01:44:19;2.37;;;1.67;;
68680;SDS011;55836;49.858;6.756;2024-03-29T01:46:46;1.73;;;1.47;;
68680;SDS011;55836;49.858;6.756;2024-03-29T01:49:12;3.57;;;1.80;;
68680;SDS011;55836;49.858;6.756;2024-03-29T01:51:39;3.73;;;2.17;;
68680;SDS011;55836;49.858;6.756;2024-03-29T01:54:06;7.53;;;1.90;;
68680;SDS011;55836;49.858;6.756;2024-03-29T01:56:32;2.80;;;2.10;;
68680;SDS011;55836;49.858;6.756;2024-03-29T01:58:59;2.93;;;2.23;;
68680;SDS011;55836;49.858;6.756;2024-03-29T02:01:26;1.57;;;1.30;;
68680;SDS011;55836;49.858;6.756;2024-03-29T02:03:53;1.20;;;1.10;;
68680;SDS011;55836;49.858;6.756;2024-03-29T02:06:19;1.40;;;1.30;;
68680;SDS011;55836;49.858;6.756;2024-03-29T02:08:46;2.33;;;1.20;;
68680;SDS011;55836;49.858;6.756;2024-03-29T02:11:15;2.43;;;0.87;;
68680;SDS011;55836;49.858;6.756;2024-03-29T02:13:41;1.70;;;1.27;;
68680;SDS011;55836;49.858;6.756;2024-03-29T02:16:07;1.30;;;1.00;;
68680;SDS011;55836;49.858;6.756;2024-03-29T02:18:33;1.23;;;1.03;;
68680;SDS011;55836;49.858;6.756;2024-03-29T02:20:59;2.33;;;1.13;;
68680;SDS011;55836;49.858;6.756;2024-03-29T02:23:26;1.20;;;1.10;;
68680;SDS011;55836;49.858;6.756;2024-03-29T02:25:55;2.17;;;1.20;;
68680;SDS011;55836;49.858;6.756;2024-03-29T02:28:24;1.63;;;1.03;;
68680;SDS011;55836;49.858;6.756;2024-03-29T02:30:51;1.67;;;1.23;;
68680;SDS011;55836;49.858;6.756;2024-03-29T02:33:17;3.80;;;1.13;;
68680;SDS011;55836;49.858;6.756;2024-03-29T02:35:43;1.47;;;1.00;;
68680;SDS011;55836;49.858;6.756;2024-03-29T02:38:09;1.70;;;1.10;;
68680;SDS011;55836;49.858;6.756;2024-03-29T02:40:35;2.00;;;1.27;;
68680;SDS011;55836;49.858;6.756;2024-03-29T02:43:01;0.90;;;0.90;;
68680;SDS011;55836;49.858;6.756;2024-03-29T02:45:27;1.37;;;1.27;;
68680;SDS011;55836;49.858;6.756;2024-03-29T02:47:53;1.97;;;0.90;;
68680;SDS011;55836;49.858;6.756;2024-03-29T02:50:19;0.97;;;0.80;;
68680;SDS011;55836;49.858;6.756;2024-03-29T02:52:45;1.00;;;1.00;;
68680;SDS011;55836;49.858;6.756;2024-03-29T02:55:11;2.07;;;0.97;;
68680;SDS011;55836;49.858;6.756;2024-03-29T02:57:37;0.70;;;0.70;;
68680;SDS011;55836;49.858;6.756;2024-03-29T03:00:06;3.23;;;1.30;;
68680;SDS011;55836;49.858;6.756;2024-03-29T03:02:39;1.90;;;0.90;;
68680;SDS011;55836;49.858;6.756;2024-03-29T03:05:05;1.67;;;1.10;;
68680;SDS011;55836;49.858;6.756;2024-03-29T03:07:32;1.07;;;1.00;;
68680;SDS011;55836;49.858;6.756;2024-03-29T03:10:16;1.77;;;1.13;;
68680;SDS011;55836;49.858;6.756;2024-03-29T03:13:01;1.57;;;1.10;;
68680;SDS011;55836;49.858;6.756;2024-03-29T03:15:27;1.13;;;1.03;;
68680;SDS011;55836;49.858;6.756;2024-03-29T03:17:53;1.40;;;1.00;;
68680;SDS011;55836;49.858;6.756;2024-03-29T03:20:19;1.50;;;1.10;;
68680;SDS011;55836;49.858;6.756;2024-03-29T03:22:45;2.97;;;1.00;;
68680;SDS011;55836;49.858;6.756;2024-03-29T03:25:11;3.50;;;1.10;;
68680;SDS011;55836;49.858;6.756;2024-03-29T03:27:37;1.10;;;0.90;;
68680;SDS011;55836;49.858;6.756;2024-03-29T03:30:03;1.60;;;1.03;;
68680;SDS011;55836;49.858;6.756;2024-03-29T03:32:29;1.17;;;1.07;;
68680;SDS011;55836;49.858;6.756;2024-03-29T03:34:55;3.17;;;1.37;;
68680;SDS011;55836;49.858;6.756;2024-03-29T03:37:21;1.93;;;1.10;;
68680;SDS011;55836;49.858;6.756;2024-03-29T03:39:47;1.40;;;1.00;;
68680;SDS011;55836;49.858;6.756;2024-03-29T03:42:13;1.40;;;1.00;;
68680;SDS011;55836;49.858;6.756;2024-03-29T03:44:39;1.10;;;1.00;;
68680;SDS011;55836;49.858;6.756;2024-03-29T03:47:05;0.90;;;0.90;;
68680;SDS011;55836;49.858;6.756;2024-03-29T03:49:31;1.10;;;1.07;;
68680;SDS011;55836;49.858;6.756;2024-03-29T03:51:57;1.80;;;1.17;;
68680;SDS011;55836;49.858;6.756;2024-03-29T03:54:23;1.20;;;1.10;;
68680;SDS011;55836;49.858;6.756;2024-03-29T03:56:49;1.33;;;1.03;;
68680;SDS011;55836;49.858;6.756;2024-03-29T03:59:15;1.10;;;0.83;;
68680;SDS011;55836;49.858;6.756;2024-03-29T04:01:41;2.10;;;1.03;;
68680;SDS011;55836;49.858;6.756;2024-03-29T04:04:07;2.43;;;1.20;;
68680;SDS011;55836;49.858;6.756;2024-03-29T04:06:33;2.43;;;1.33;;
68680;SDS011;55836;49.858;6.756;2024-03-29T04:08:59;1.30;;;1.20;;
68680;SDS011;55836;49.858;6.756;2024-03-29T04:11:25;2.23;;;1.23;;
68680;SDS011;55836;49.858;6.756;2024-03-29T04:13:52;3.63;;;1.33;;
68680;SDS011;55836;49.858;6.756;2024-03-29T04:16:18;1.33;;;1.20;;
68680;SDS011;55836;49.858;6.756;2024-03-29T04:18:44;1.10;;;1.00;;
68680;SDS011;55836;49.858;6.756;2024-03-29T04:21:10;2.53;;;1.20;;
68680;SDS011;55836;49.858;6.756;2024-03-29T04:23:36;1.33;;;1.23;;
68680;SDS011;55836;49.858;6.756;2024-03-29T04:26:02;1.33;;;1.10;;
68680;SDS011;55836;49.858;6.756;2024-03-29T04:28:28;2.33;;;1.23;;
68680;SDS011;55836;49.858;6.756;2024-03-29T04:30:55;1.43;;;1.20;;
68680;SDS011;55836;49.858;6.756;2024-03-29T04:33:21;1.20;;;1.10;;
68680;SDS011;55836;49.858;6.756;2024-03-29T04:36:00;2.40;;;1.43;;
68680;SDS011;55836;49.858;6.756;2024-03-29T04:38:27;1.77;;;1.57;;
68680;SDS011;55836;49.858;6.756;2024-03-29T04:40:54;1.13;;;1.03;;
68680;SDS011;55836;49.858;6.756;2024-03-29T04:43:24;1.43;;;1.20;;
68680;SDS011;55836;49.858;6.756;2024-03-29T04:45:50;1.77;;;1.20;;
68680;SDS011;55836;49.858;6.756;2024-03-29T04:48:17;1.63;;;1.50;;
68680;SDS011;55836;49.858;6.756;2024-03-29T04:50:43;1.20;;;1.10;;
68680;SDS011;55836;49.858;6.756;2024-03-29T04:53:09;1.80;;;1.10;;
68680;SDS011;55836;49.858;6.756;2024-03-29T04:55:35;2.10;;;1.57;;
68680;SDS011;55836;49.858;6.756;2024-03-29T04:58:01;2.37;;;1.43;;
68680;SDS011;55836;49.858;6.756;2024-03-29T05:00:27;2.87;;;1.40;;
68680;SDS011;55836;49.858;6.756;2024-03-29T05:02:54;2.47;;;1.00;;
68680;SDS011;55836;49.858;6.756;2024-03-29T05:05:20;1.33;;;1.23;;
68680;SDS011;55836;49.858;6.756;2024-03-29T05:07:46;1.17;;;1.07;;
68680;SDS011;55836;49.858;6.756;2024-03-29T05:10:12;1.50;;;1.37;;
68680;SDS011;55836;49.858;6.756;2024-03-29T05:12:40;1.07;;;0.97;;
68680;SDS011;55836;49.858;6.756;2024-03-29T05:15:06;1.87;;;1.10;;
68680;SDS011;55836;49.858;6.756;2024-03-29T05:17:32;1.10;;;1.00;;
68680;SDS011;55836;49.858;6.756;2024-03-29T05:19:58;1.40;;;1.30;;
68680;SDS011;55836;49.858;6.756;2024-03-29T05:22:24;3.90;;;1.30;;
68680;SDS011;55836;49.858;6.756;2024-03-29T05:24:53;1.17;;;1.10;;
68680;SDS011;55836;49.858;6.756;2024-03-29T05:27:19;1.67;;;1.20;;
68680;SDS011;55836;49.858;6.756;2024-03-29T05:29:45;2.43;;;1.00;;
68680;SDS011;55836;49.858;6.756;2024-03-29T05:32:12;1.90;;;1.20;;
68680;SDS011;55836;49.858;6.756;2024-03-29T05:34:38;1.73;;;1.07;;
68680;SDS011;55836;49.858;6.756;2024-03-29T05:37:04;1.37;;;1.20;;
68680;SDS011;55836;49.858;6.756;2024-03-29T05:39:30;1.47;;;1.37;;
68680;SDS011;55836;49.858;6.756;2024-03-29T05:41:56;1.33;;;1.20;;
68680;SDS011;55836;49.858;6.756;2024-03-29T05:44:23;2.73;;;1.30;;
68680;SDS011;55836;49.858;6.756;2024-03-29T05:46:49;1.73;;;1.13;;
68680;SDS011;55836;49.858;6.756;2024-03-29T05:49:15;2.37;;;1.10;;
68680;SDS011;55836;49.858;6.756;2024-03-29T05:51:41;1.67;;;1.57;;
68680;SDS011;55836;49.858;6.756;2024-03-29T05:54:07;1.20;;;1.00;;
68680;SDS011;55836;49.858;6.756;2024-03-29T05:56:33;1.73;;;1.20;;
68680;SDS011;55836;49.858;6.756;2024-03-29T05:58:59;2.47;;;1.20;;
68680;SDS011;55836;49.858;6.756;2024-03-29T06:01:25;1.63;;;1.10;;
68680;SDS011;55836;49.858;6.756;2024-03-29T06:03:51;3.60;;;1.50;;
68680;SDS011;55836;49.858;6.756;2024-03-29T06:06:19;2.23;;;1.27;;
68680;SDS011;55836;49.858;6.756;2024-03-29T06:08:49;1.67;;;1.40;;
68680;SDS011;55836;49.858;6.756;2024-03-29T06:11:15;2.43;;;1.40;;
68680;SDS011;55836;49.858;6.756;2024-03-29T06:13:41;1.57;;;1.17;;
68680;SDS011;55836;49.858;6.756;2024-03-29T06:16:36;5.07;;;2.90;;
68680;SDS011;55836;49.858;6.756;2024-03-29T06:19:20;1.70;;;1.40;;
68680;SDS011;55836;49.858;6.756;2024-03-29T06:21:46;1.40;;;1.30;;
68680;SDS011;55836;49.858;6.756;2024-03-29T06:24:12;2.83;;;1.40;;
68680;SDS011;55836;49.858;6.756;2024-03-29T06:26:39;1.30;;;1.20;;
68680;SDS011;55836;49.858;6.756;2024-03-29T06:29:05;1.20;;;1.10;;
68680;SDS011;55836;49.858;6.756;2024-03-29T06:31:34;1.30;;;1.20;;
68680;SDS011;55836;49.858;6.756;2024-03-29T06:34:00;1.37;;;1.00;;
68680;SDS011;55836;49.858;6.756;2024-03-29T06:36:26;1.53;;;1.40;;
68680;SDS011;55836;49.858;6.756;2024-03-29T06:38:54;2.57;;;1.40;;
68680;SDS011;55836;49.858;6.756;2024-03-29T06:41:20;2.03;;;1.10;;
68680;SDS011;55836;49.858;6.756;2024-03-29T06:43:46;5.53;;;1.60;;
68680;SDS011;55836;49.858;6.756;2024-03-29T06:46:13;1.40;;;1.30;;
68680;SDS011;55836;49.858;6.756;2024-03-29T06:48:39;2.73;;;1.27;;
68680;SDS011;55836;49.858;6.756;2024-03-29T06:51:05;2.10;;;1.20;;
68680;SDS011;55836;49.858;6.756;2024-03-29T06:53:31;2.87;;;1.10;;
68680;SDS011;55836;49.858;6.756;2024-03-29T06:55:59;1.97;;;1.10;;
68680;SDS011;55836;49.858;6.756;2024-03-29T06:58:25;1.77;;;1.37;;
68680;SDS011;55836;49.858;6.756;2024-03-29T07:00:51;1.53;;;1.20;;
68680;SDS011;55836;49.858;6.756;2024-03-29T07:03:17;1.83;;;1.37;;
68680;SDS011;55836;49.858;6.756;2024-03-29T07:05:46;2.53;;;1.50;;
68680;SDS011;55836;49.858;6.756;2024-03-29T07:08:12;3.20;;;1.47;;
68680;SDS011;55836;49.858;6.756;2024-03-29T07:10:38;2.47;;;1.23;;
68680;SDS011;55836;49.858;6.756;2024-03-29T07:13:07;1.70;;;1.40;;
68680;SDS011;55836;49.858;6.756;2024-03-29T07:15:34;2.57;;;1.20;;
68680;SDS011;55836;49.858;6.756;2024-03-29T07:18:00;1.27;;;1.17;;
68680;SDS011;55836;49.858;6.756;2024-03-29T07:20:28;2.20;;;1.33;;
68680;SDS011;55836;49.858;6.756;2024-03-29T07:22:54;2.13;;;1.07;;
68680;SDS011;55836;49.858;6.756;2024-03-29T07:25:20;1.47;;;1.10;;
68680;SDS011;55836;49.858;6.756;2024-03-29T07:27:46;1.43;;;1.20;;
68680;SDS011;55836;49.858;6.756;2024-03-29T07:30:12;2.17;;;1.30;;
68680;SDS011;55836;49.858;6.756;2024-03-29T07:32:39;3.33;;;2.30;;
68680;SDS011;55836;49.858;6.756;2024-03-29T07:35:05;2.83;;;1.90;;
68680;SDS011;55836;49.858;6.756;2024-03-29T07:37:31;4.40;;;1.87;;
68680;SDS011;55836;49.858;6.756;2024-03-29T07:39:57;5.77;;;2.37;;
68680;SDS011;55836;49.858;6.756;2024-03-29T07:42:23;3.17;;;2.67;;
68680;SDS011;55836;49.858;6.756;2024-03-29T07:44:49;1.83;;;1.73;;
68680;SDS011;55836;49.858;6.756;2024-03-29T07:47:15;4.27;;;2.20;;
68680;SDS011;55836;49.858;6.756;2024-03-29T07:49:42;2.97;;;1.90;;
68680;SDS011;55836;49.858;6.756;2024-03-29T07:52:08;3.87;;;2.30;;
68680;SDS011;55836;49.858;6.756;2024-03-29T07:54:34;2.10;;;1.90;;
68680;SDS011;55836;49.858;6.756;2024-03-29T07:57:01;1.90;;;1.80;;
68680;SDS011;55836;49.858;6.756;2024-03-29T07:59:27;3.07;;;1.93;;
68680;SDS011;55836;49.858;6.756;2024-03-29T08:01:53;3.57;;;2.20;;
68680;SDS011;55836;49.858;6.756;2024-03-29T08:04:23;2.47;;;2.00;;
68680;SDS011;55836;49.858;6.756;2024-03-29T08:06:51;2.70;;;2.10;;
68680;SDS011;55836;49.858;6.756;2024-03-29T08:09:17;2.33;;;2.13;;
68680;SDS011;55836;49.858;6.756;2024-03-29T08:11:43;2.17;;;1.83;;
68680;SDS011;55836;49.858;6.756;2024-03-29T08:14:09;3.00;;;2.27;;
68680;SDS011;55836;49.858;6.756;2024-03-29T08:16:35;3.27;;;2.73;;
68680;SDS011;55836;49.858;6.756;2024-03-29T08:19:01;3.33;;;2.53;;
68680;SDS011;55836;49.858;6.756;2024-03-29T08:21:27;4.07;;;2.83;;
68680;SDS011;55836;49.858;6.756;2024-03-29T08:23:54;2.70;;;2.50;;
68680;SDS011;55836;49.858;6.756;2024-03-29T08:26:21;3.63;;;3.00;;
68680;SDS011;55836;49.858;6.756;2024-03-29T08:28:47;4.90;;;3.57;;
68680;SDS011;55836;49.858;6.756;2024-03-29T08:31:13;2.97;;;2.67;;
68680;SDS011;55836;49.858;6.756;2024-03-29T08:33:39;4.47;;;3.17;;
68680;SDS011;55836;49.858;6.756;2024-03-29T08:36:06;4.20;;;3.20;;
68680;SDS011;55836;49.858;6.756;2024-03-29T08:38:33;4.03;;;3.27;;
68680;SDS011;55836;49.858;6.756;2024-03-29T08:40:59;4.27;;;3.13;;
68680;SDS011;55836;49.858;6.756;2024-03-29T08:43:25;4.83;;;3.70;;
68680;SDS011;55836;49.858;6.756;2024-03-29T08:45:51;4.40;;;3.20;;
68680;SDS011;55836;49.858;6.756;2024-03-29T08:48:17;4.50;;;3.23;;
68680;SDS011;55836;49.858;6.756;2024-03-29T08:50:44;3.80;;;3.20;;
68680;SDS011;55836;49.858;6.756;2024-03-29T08:53:11;3.37;;;3.03;;
68680;SDS011;55836;49.858;6.756;2024-03-29T08:55:37;5.40;;;3.63;;
68680;SDS011;55836;49.858;6.756;2024-03-29T08:58:04;5.93;;;3.30;;
68680;SDS011;55836;49.858;6.756;2024-03-29T09:00:30;4.90;;;3.77;;
68680;SDS011;55836;49.858;6.756;2024-03-29T09:02:56;6.33;;;3.77;;
68680;SDS011;55836;49.858;6.756;2024-03-29T09:05:23;4.27;;;3.23;;
68680;SDS011;55836;49.858;6.756;2024-03-29T09:07:49;4.43;;;3.57;;
68680;SDS011;55836;49.858;6.756;2024-03-29T09:10:16;4.77;;;3.77;;
68680;SDS011;55836;49.858;6.756;2024-03-29T09:12:44;4.20;;;3.77;;
68680;SDS011;55836;49.858;6.756;2024-03-29T09:15:10;6.00;;;4.80;;
68680;SDS011;55836;49.858;6.756;2024-03-29T09:17:40;4.50;;;3.77;;
68680;SDS011;55836;49.858;6.756;2024-03-29T09:20:06;5.83;;;3.87;;
68680;SDS011;55836;49.858;6.756;2024-03-29T09:22:33;5.07;;;3.77;;
68680;SDS011;55836;49.858;6.756;2024-03-29T09:24:58;5.20;;;3.37;;
68680;SDS011;55836;49.858;6.756;2024-03-29T09:27:26;4.70;;;3.17;;
68680;SDS011;55836;49.858;6.756;2024-03-29T09:29:52;4.10;;;3.10;;
68680;SDS011;55836;49.858;6.756;2024-03-29T09:32:18;3.73;;;3.10;;
68680;SDS011;55836;49.858;6.756;2024-03-29T09:34:46;5.27;;;4.60;;
68680;SDS011;55836;49.858;6.756;2024-03-29T09:37:12;3.60;;;3.23;;
68680;SDS011;55836;49.858;6.756;2024-03-29T09:39:38;3.20;;;2.90;;
68680;SDS011;55836;49.858;6.756;2024-03-29T09:42:04;3.67;;;3.30;;
68680;SDS011;55836;49.858;6.756;2024-03-29T09:44:32;4.40;;;3.37;;
68680;SDS011;55836;49.858;6.756;2024-03-29T09:47:02;6.77;;;3.93;;
68680;SDS011;55836;49.858;6.756;2024-03-29T09:49:28;4.93;;;3.60;;
68680;SDS011;55836;49.858;6.756;2024-03-29T09:51:55;4.27;;;3.50;;
68680;SDS011;55836;49.858;6.756;2024-03-29T09:54:21;4.17;;;3.30;;
68680;SDS011;55836;49.858;6.756;2024-03-29T09:56:48;5.17;;;3.70;;
68680;SDS011;55836;49.858;6.756;2024-03-29T09:59:15;4.70;;;3.20;;
68680;SDS011;55836;49.858;6.756;2024-03-29T10:01:41;3.97;;;2.77;;
68680;SDS011;55836;49.858;6.756;2024-03-29T10:04:07;4.30;;;3.40;;
68680;SDS011;55836;49.858;6.756;2024-03-29T10:06:34;5.03;;;3.80;;
68680;SDS011;55836;49.858;6.756;2024-03-29T10:09:00;2.60;;;2.40;;
68680;SDS011;55836;49.858;6.756;2024-03-29T10:11:27;3.23;;;2.93;;
68680;SDS011;55836;49.858;6.756;2024-03-29T10:13:53;3.53;;;3.23;;
68680;SDS011;55836;49.858;6.756;2024-03-29T10:16:19;4.77;;;2.97;;
68680;SDS011;55836;49.858;6.756;2024-03-29T10:18:49;3.50;;;2.97;;
68680;SDS011;55836;49.858;6.756;2024-03-29T10:21:15;3.90;;;2.50;;
68680;SDS011;55836;49.858;6.756;2024-03-29T10:23:41;2.63;;;2.43;;
68680;SDS011;55836;49.858;6.756;2024-03-29T10:26:08;3.03;;;2.70;;
68680;SDS011;55836;49.858;6.756;2024-03-29T10:28:35;2.73;;;2.20;;
68680;SDS011;55836;49.858;6.756;2024-03-29T10:31:02;3.53;;;2.37;;
68680;SDS011;55836;49.858;6.756;2024-03-29T10:33:31;2.90;;;2.50;;
68680;SDS011;55836;49.858;6.756;2024-03-29T10:36:02;2.37;;;1.90;;
68680;SDS011;55836;49.858;6.756;2024-03-29T10:38:32;1.73;;;1.63;;
68680;SDS011;55836;49.858;6.756;2024-03-29T10:40:59;2.30;;;1.80;;
68680;SDS011;55836;49.858;6.756;2024-03-29T10:43:28;1.50;;;1.40;;
68680;SDS011;55836;49.858;6.756;2024-03-29T10:45:55;3.30;;;1.63;;
68680;SDS011;55836;49.858;6.756;2024-03-29T10:48:24;1.63;;;1.53;;
68680;SDS011;55836;49.858;6.756;2024-03-29T10:50:51;2.53;;;2.00;;
68680;SDS011;55836;49.858;6.756;2024-03-29T10:53:19;2.17;;;1.50;;
68680;SDS011;55836;49.858;6.756;2024-03-29T10:55:45;2.17;;;1.83;;
68680;SDS011;55836;49.858;6.756;2024-03-29T10:58:11;3.00;;;2.10;;
68680;SDS011;55836;49.858;6.756;2024-03-29T11:00:41;2.13;;;2.03;;
68680;SDS011;55836;49.858;6.756;2024-03-29T11:03:13;2.30;;;2.10;;
68680;SDS011;55836;49.858;6.756;2024-03-29T11:05:44;3.57;;;2.20;;
68680;SDS011;55836;49.858;6.756;2024-03-29T11:08:12;2.40;;;2.10;;
68680;SDS011;55836;49.858;6.756;2024-03-29T11:10:39;2.87;;;2.00;;
68680;SDS011;55836;49.858;6.756;2024-03-29T11:15:40;2.30;;;2.10;;
68680;SDS011;55836;49.858;6.756;2024-03-29T11:18:07;2.40;;;1.83;;
68680;SDS011;55836;49.858;6.756;2024-03-29T11:20:33;2.37;;;1.90;;
68680;SDS011;55836;49.858;6.756;2024-03-29T11:23:06;2.40;;;1.90;;
68680;SDS011;55836;49.858;6.756;2024-03-29T11:25:38;5.53;;;2.40;;
68680;SDS011;55836;49.858;6.756;2024-03-29T11:28:07;3.10;;;2.07;;
68680;SDS011;55836;49.858;6.756;2024-03-29T11:30:41;5.00;;;2.97;;
68680;SDS011;55836;49.858;6.756;2024-03-29T11:33:07;3.27;;;2.00;;
68680;SDS011;55836;49.858;6.756;2024-03-29T11:35:38;3.00;;;2.13;;
68680;SDS011;55836;49.858;6.756;2024-03-29T11:38:04;3.93;;;2.30;;
68680;SDS011;55836;49.858;6.756;2024-03-29T11:40:30;5.10;;;2.47;;
68680;SDS011;55836;49.858;6.756;2024-03-29T11:42:56;2.90;;;2.30;;
68680;SDS011;55836;49.858;6.756;2024-03-29T11:45:23;3.63;;;1.80;;
68680;SDS011;55836;49.858;6.756;2024-03-29T11:47:55;2.73;;;2.20;;
68680;SDS011;55836;49.858;6.756;2024-03-29T11:50:22;2.17;;;1.73;;
68680;SDS011;55836;49.858;6.756;2024-03-29T11:52:48;2.83;;;1.73;;
68680;SDS011;55836;49.858;6.756;2024-03-29T11:55:14;3.43;;;2.10;;
68680;SDS011;55836;49.858;6.756;2024-03-29T11:57:40;7.17;;;2.73;;
68680;SDS011;55836;49.858;6.756;2024-03-29T12:00:06;4.20;;;2.47;;
68680;SDS011;55836;49.858;6.756;2024-03-29T12:02:34;3.43;;;2.10;;
68680;SDS011;55836;49.858;6.756;2024-03-29T12:05:05;4.93;;;3.17;;
68680;SDS011;55836;49.858;6.756;2024-03-29T12:07:31;2.13;;;1.90;;
68680;SDS011;55836;49.858;6.756;2024-03-29T12:09:57;5.40;;;3.50;;
68680;SDS011;55836;49.858;6.756;2024-03-29T12:12:23;1.60;;;1.50;;
68680;SDS011;55836;49.858;6.756;2024-03-29T12:14:49;3.10;;;2.40;;
68680;SDS011;55836;49.858;6.756;2024-03-29T12:17:15;2.30;;;2.03;;
68680;SDS011;55836;49.858;6.756;2024-03-29T12:19:41;3.10;;;1.40;;
68680;SDS011;55836;49.858;6.756;2024-03-29T12:22:09;2.37;;;1.57;;
68680;SDS011;55836;49.858;6.756;2024-03-29T12:24:35;1.87;;;1.50;;
68680;SDS011;55836;49.858;6.756;2024-03-29T12:27:01;1.60;;;1.33;;
68680;SDS011;55836;49.858;6.756;2024-03-29T12:29:28;1.83;;;1.20;;
68680;SDS011;55836;49.858;6.756;2024-03-29T12:31:58;1.40;;;1.30;;
68680;SDS011;55836;49.858;6.756;2024-03-29T12:34:24;3.50;;;1.20;;
68680;SDS011;55836;49.858;6.756;2024-03-29T12:36:50;1.97;;;1.20;;
68680;SDS011;55836;49.858;6.756;2024-03-29T12:39:16;1.57;;;1.13;;
68680;SDS011;55836;49.858;6.756;2024-03-29T12:41:42;1.57;;;1.10;;
68680;SDS011;55836;49.858;6.756;2024-03-29T12:44:09;1.70;;;1.03;;
68680;SDS011;55836;49.858;6.756;2024-03-29T12:46:35;1.03;;;1.03;;
68680;SDS011;55836;49.858;6.756;2024-03-29T12:49:02;0.77;;;0.77;;
68680;SDS011;55836;49.858;6.756;2024-03-29T12:51:28;0.77;;;0.77;;
68680;SDS011;55836;49.858;6.756;2024-03-29T12:53:55;2.30;;;1.23;;
68680;SDS011;55836;49.858;6.756;2024-03-29T12:56:25;1.20;;;1.10;;
68680;SDS011;55836;49.858;6.756;2024-03-29T12:58:51;1.40;;;1.30;;
68680;SDS011;55836;49.858;6.756;2024-03-29T13:01:17;1.60;;;1.43;;
68680;SDS011;55836;49.858;6.756;2024-03-29T13:03:43;1.20;;;1.10;;
68680;SDS011;55836;49.858;6.756;2024-03-29T13:06:09;0.87;;;0.87;;
68680;SDS011;55836;49.858;6.756;2024-03-29T13:08:35;1.00;;;0.90;;
68680;SDS011;55836;49.858;6.756;2024-03-29T13:11:01;1.27;;;1.17;;
68680;SDS011;55836;49.858;6.756;2024-03-29T13:13:27;1.00;;;1.00;;
68680;SDS011;55836;49.858;6.756;2024-03-29T13:15:53;0.90;;;0.90;;
68680;SDS011;55836;49.858;6.756;2024-03-29T13:18:19;1.00;;;1.00;;
68680;SDS011;55836;49.858;6.756;2024-03-29T13:20:46;1.20;;;1.07;;
68680;SDS011;55836;49.858;6.756;2024-03-29T13:23:12;2.37;;;0.97;;
68680;SDS011;55836;49.858;6.756;2024-03-29T13:25:39;1.00;;;0.90;;
68680;SDS011;55836;49.858;6.756;2024-03-29T13:28:05;1.50;;;1.27;;
68680;SDS011;55836;49.858;6.756;2024-03-29T13:30:32;1.30;;;1.10;;
68680;SDS011;55836;49.858;6.756;2024-03-29T13:32:58;1.10;;;1.10;;
68680;SDS011;55836;49.858;6.756;2024-03-29T13:35:24;1.27;;;1.17;;
68680;SDS011;55836;49.858;6.756;2024-03-29T13:37:51;1.53;;;0.90;;
68680;SDS011;55836;49.858;6.756;2024-03-29T13:40:21;1.10;;;1.00;;
68680;SDS011;55836;49.858;6.756;2024-03-29T13:42:47;1.53;;;1.10;;
68680;SDS011;55836;49.858;6.756;2024-03-29T13:45:16;2.20;;;0.90;;
68680;SDS011;55836;49.858;6.756;2024-03-29T13:47:43;1.10;;;1.00;;
68680;SDS011;55836;49.858;6.756;2024-03-29T13:50:11;0.80;;;0.80;;
68680;SDS011;55836;49.858;6.756;2024-03-29T13:52:39;1.40;;;0.97;;
68680;SDS011;55836;49.858;6.756;2024-03-29T13:55:05;1.00;;;0.90;;
68680;SDS011;55836;49.858;6.756;2024-03-29T13:57:31;1.30;;;1.20;;
68680;SDS011;55836;49.858;6.756;2024-03-29T13:59:57;2.37;;;0.90;;
68680;SDS011;55836;49.858;6.756;2024-03-29T14:02:23;0.80;;;0.80;;
68680;SDS011;55836;49.858;6.756;2024-03-29T14:04:51;1.80;;;1.20;;
68680;SDS011;55836;49.858;6.756;2024-03-29T14:07:17;2.47;;;2.23;;
68680;SDS011;55836;49.858;6.756;2024-03-29T14:09:46;3.90;;;2.00;;
68680;SDS011;55836;49.858;6.756;2024-03-29T14:12:12;1.40;;;1.20;;
68680;SDS011;55836;49.858;6.756;2024-03-29T14:14:39;1.40;;;1.30;;
68680;SDS011;55836;49.858;6.756;2024-03-29T14:17:06;2.77;;;2.43;;
68680;SDS011;55836;49.858;6.756;2024-03-29T14:19:33;3.77;;;2.27;;
68680;SDS011;55836;49.858;6.756;2024-03-29T14:22:00;2.03;;;1.77;;
68680;SDS011;55836;49.858;6.756;2024-03-29T14:24:26;1.97;;;1.87;;
68680;SDS011;55836;49.858;6.756;2024-03-29T14:26:53;3.73;;;3.20;;
68680;SDS011;55836;49.858;6.756;2024-03-29T14:29:20;7.47;;;4.57;;
68680;SDS011;55836;49.858;6.756;2024-03-29T14:31:47;4.90;;;4.07;;
68680;SDS011;55836;49.858;6.756;2024-03-29T14:34:13;3.33;;;2.23;;
68680;SDS011;55836;49.858;6.756;2024-03-29T14:36:39;2.23;;;1.40;;
68680;SDS011;55836;49.858;6.756;2024-03-29T14:39:06;2.40;;;1.60;;
68680;SDS011;55836;49.858;6.756;2024-03-29T14:41:32;1.60;;;1.50;;
68680;SDS011;55836;49.858;6.756;2024-03-29T14:44:01;1.33;;;1.23;;
68680;SDS011;55836;49.858;6.756;2024-03-29T14:46:27;1.47;;;1.37;;
68680;SDS011;55836;49.858;6.756;2024-03-29T14:48:53;3.80;;;2.07;;